Robijn — PBEJ — position and weather

sailwx.info

Track history (hours):
 
Tides and Currents Weather Stations Pressure Air Temp Water Temp Dewpoint Dewpoint Depression Visibility Wind Speed Wind Dir Waves Ship Positions

Robijn

Last reported at 2016-May-05 19:33 UTC. Time now 2016-May-05 20:02 UTC.
Position N 50°23' W 000°32'.

Length 90 m; draft 5.4 m.

Type: Cargo ship. MMSI: 245909000.

Date/timePositionNaut miles runAvg speedWind from/ knotsBaromVisibWave heightAir tempDewpointWater temp
2016-May-05 19:33N 50°23' W 000°32'7 6.9
2016-May-05 18:34N 50°25' W 000°22'8 8.2
2016-May-05 17:33N 50°27' W 000°09'10 9.8
2016-May-05 16:33N 50°30' E 000°06'1111.2
2016-May-05 15:33N 50°33' E 000°23'2611.1
2016-May-05 13:14N 50°45' E 000°59'7 9.7
2016-May-05 12:32N 50°49' E 001°08'8 8.5
2016-May-05 11:34N 50°54' E 001°18'7 7.2
2016-May-05 10:34N 50°60' E 001°25'7 7.3
2016-May-05 09:34N 51°05' E 001°33'9 8.6
2016-May-05 08:33N 51°12' E 001°42'1110.8
2016-May-05 07:34N 51°21' E 001°51'1111.2
2016-May-05 06:34N 51°30' E 002°01'1211.6
2016-May-05 05:34N 51°39' E 002°14'1110.8
2016-May-05 04:33N 51°47' E 002°25'10 9.8
2016-May-05 03:33N 51°55' E 002°35'9 8.8
2016-May-05 02:31N 52°01' E 002°45'46 8.8
2016-May-04 21:14N 52°38' E 003°31'710.6
2016-May-04 20:33N 52°43' E 003°39'1110.8
2016-May-04 19:33N 52°51' E 003°51'2110.5
2016-May-04 17:31N 53°06' E 004°16'9 9.2
2016-May-04 16:33N 53°13' E 004°26'25 7.8
2016-May-04 13:20N 53°32' E 004°54'7 9.8
2016-May-04 12:33N 53°34' E 005°06'1110.5
2016-May-04 11:33N 53°38' E 005°23'1110.8
2016-May-04 10:34N 53°42' E 005°40'1110.7
2016-May-04 09:32N 53°45' E 005°57'1010.1
2016-May-04 08:32N 53°48' E 006°14'9 9.5
2016-May-04 07:33N 53°50' E 006°29'9 8.8
2016-May-04 06:33N 53°52' E 006°44'8 8.4
2016-May-04 05:33N 53°54' E 006°58'9 8.5
2016-May-04 04:33N 53°57' E 007°12'9 9.1
2016-May-04 03:33N 53°59' E 007°26'10 9.9
2016-May-04 02:34N 54°02' E 007°43'1110.6
2016-May-04 01:33N 54°01' E 008°01'1111.4
2016-May-04 00:33N 53°60' E 008°20'1212.3
2016-May-03 23:33N 53°56' E 008°40'9 9.4
2016-May-03 22:34N 53°51' E 008°53'9 8.5
2016-May-03 21:34N 53°53' E 009°07'2 1.8
2016-May-03 20:34N 53°54' E 009°09'0 0.1
2016-May-03 19:34N 53°54' E 009°09'0 0.0
2016-May-03 18:34N 53°54' E 009°09'7 6.8
2016-May-03 17:34N 53°59' E 009°17'31 7.3
2016-May-03 13:18N 54°21' E 009°55'5 6.8
2016-May-03 12:34N 54°22' E 010°04'3 2.8
2016-May-03 11:34N 54°22' E 010°08'3 2.7
2016-May-03 10:34N 54°24' E 010°12'1010.1
2016-May-03 09:34N 54°31' E 010°23'9 8.6
2016-May-03 08:33N 54°34' E 010°37'1010.3
2016-May-03 07:34N 54°36' E 010°54'1010.1
2016-May-03 06:34N 54°36' E 011°12'1110.5
2016-May-03 05:34N 54°32' E 011°29'1010.2
2016-May-03 04:34N 54°28' E 011°45'10 9.5
2016-May-03 03:34N 54°27' E 012°01'9 8.6
2016-May-03 02:34N 54°32' E 012°12'9 9.2
2016-May-03 01:33N 54°40' E 012°22'10 9.7
2016-May-03 00:34N 54°45' E 012°36'9 9.4
2016-May-02 23:33N 54°49' E 012°50'9 9.4
2016-May-02 22:34N 54°52' E 013°06'10 9.6
2016-May-02 21:34N 54°56' E 013°21'10 9.6
2016-May-02 20:34N 54°59' E 013°37'10 9.9
2016-May-02 19:34N 55°03' E 013°53'10 9.8
2016-May-02 18:34N 55°08' E 014°08'1010.4
2016-May-02 17:34N 55°16' E 014°20'1010.1
2016-May-02 16:33N 55°24' E 014°31'10 9.9
2016-May-02 15:34N 55°29' E 014°45'1010.1
2016-May-02 14:33N 55°34' E 015°01'1110.1
2016-May-02 13:28N 55°39' E 015°18'910.1
2016-May-02 12:34N 55°44' E 015°32'1010.0
2016-May-02 11:34N 55°49' E 015°48'1210.1
2016-May-02 10:23N 55°55' E 016°06'303 9.7
2016-May-01 03:16N 59°24' E 022°55'10 9.6
2016-May-01 02:17N 59°28' E 023°13'7 9.8
2016-May-01 01:33N 59°31' E 023°26'10 9.6
2016-May-01 00:31N 59°34' E 023°44'10 9.6
2016-Apr-30 23:29N 59°37' E 024°03'72 2.2
2016-Apr-29 15:33N 59°43' E 026°24'1212.1
2016-Apr-29 14:33N 59°55' E 026°16'1211.8
2016-Apr-29 13:33N 60°07' E 026°18'1111.4
2016-Apr-29 12:33N 60°16' E 026°30'1212.0
2016-Apr-29 11:33N 60°24' E 026°49'1111.3
2016-Apr-29 10:33N 60°30' E 027°08'2 1.8
2016-Apr-29 09:32N 60°32' E 027°10'0 0.0
2016-Apr-29 08:32N 60°32' E 027°10'0 0.0
2016-Apr-29 07:26N 60°32' E 027°10'0 0.0
2016-Apr-29 06:26N 60°32' E 027°10'0 0.0
2016-Apr-29 05:32N 60°32' E 027°10'0 0.0
2016-Apr-29 04:32N 60°32' E 027°10'0 0.0
2016-Apr-29 03:32N 60°32' E 027°10'0 0.0
2016-Apr-29 02:32N 60°32' E 027°10'0 0.0
2016-Apr-29 01:32N 60°32' E 027°10'0 0.0
2016-Apr-29 00:32N 60°32' E 027°10'0 0.0
2016-Apr-28 23:32N 60°32' E 027°10'0 0.0
2016-Apr-28 22:32N 60°32' E 027°10'0 0.0
2016-Apr-28 21:32N 60°32' E 027°10'0 0.0
2016-Apr-28 20:29N 60°32' E 027°10'0 0.0
2016-Apr-28 19:26N 60°32' E 027°10'0 0.0
2016-Apr-28 18:32N 60°32' E 027°10'0 0.0
2016-Apr-28 17:32N 60°32' E 027°10'0 0.0
2016-Apr-28 16:32N 60°32' E 027°10'0 0.0
2016-Apr-28 07:20N 60°32' E 027°10'0 0.0
2016-Apr-28 05:26N 60°32' E 027°10'0 0.0
2016-Apr-28 03:32N 60°32' E 027°10'0 0.0
2016-Apr-28 02:32N 60°32' E 027°10'0 0.0
2016-Apr-28 01:20N 60°32' E 027°10'0 0.0
2016-Apr-27 22:26N 60°32' E 027°10'0 0.0
2016-Apr-27 21:32N 60°32' E 027°10'0 0.0
2016-Apr-27 20:26N 60°32' E 027°10'0 0.0
2016-Apr-27 19:20N 60°32' E 027°10'0 0.0
2016-Apr-27 18:32N 60°32' E 027°10'0 0.0
2016-Apr-27 17:29N 60°32' E 027°10'0 0.0
2016-Apr-27 01:17N 60°32' E 027°10'0 0.1
2016-Apr-27 00:32N 60°31' E 027°10'9 9.0
2016-Apr-26 23:33N 60°23' E 027°09'8 8.2
2016-Apr-26 22:33N 60°22' E 026°52'9 9.4
2016-Apr-26 21:33N 60°19' E 026°35'10 9.9
2016-Apr-26 20:33N 60°11' E 026°22'7410.4
2016-Apr-26 13:27N 59°41' E 024°08'1010.7
2016-Apr-26 12:33N 59°38' E 023°50'1110.6
2016-Apr-26 11:32N 59°34' E 023°30'  
Track history (hours):
 
Tides and Currents Weather Stations Pressure Air Temp Water Temp Dewpoint Dewpoint Depression Visibility Wind Speed Wind Dir Waves Ship Positions

Robijn

Last reported at 2016-May-05 19:33 UTC. Time now 2016-May-05 20:02 UTC.
Position N 50°23' W 000°32'.

Length 90 m; draft 5.4 m.

Type: Cargo ship. MMSI: 245909000.

Date/timePositionNaut miles runAvg speedWind from/ knotsBaromVisibWave heightAir tempDewpointWater temp
2016-May-05 19:33N 50°23' W 000°32'7 6.9
2016-May-05 18:34N 50°25' W 000°22'8 8.2
2016-May-05 17:33N 50°27' W 000°09'10 9.8
2016-May-05 16:33N 50°30' E 000°06'1111.2
2016-May-05 15:33N 50°33' E 000°23'2611.1
2016-May-05 13:14N 50°45' E 000°59'7 9.7
2016-May-05 12:32N 50°49' E 001°08'8 8.5
2016-May-05 11:34N 50°54' E 001°18'7 7.2
2016-May-05 10:34N 50°60' E 001°25'7 7.3
2016-May-05 09:34N 51°05' E 001°33'9 8.6
2016-May-05 08:33N 51°12' E 001°42'1110.8
2016-May-05 07:34N 51°21' E 001°51'1111.2
2016-May-05 06:34N 51°30' E 002°01'1211.6
2016-May-05 05:34N 51°39' E 002°14'1110.8
2016-May-05 04:33N 51°47' E 002°25'10 9.8
2016-May-05 03:33N 51°55' E 002°35'9 8.8
2016-May-05 02:31N 52°01' E 002°45'46 8.8
2016-May-04 21:14N 52°38' E 003°31'710.6
2016-May-04 20:33N 52°43' E 003°39'1110.8
2016-May-04 19:33N 52°51' E 003°51'2110.5
2016-May-04 17:31N 53°06' E 004°16'9 9.2
2016-May-04 16:33N 53°13' E 004°26'25 7.8
2016-May-04 13:20N 53°32' E 004°54'7 9.8
2016-May-04 12:33N 53°34' E 005°06'1110.5
2016-May-04 11:33N 53°38' E 005°23'1110.8
2016-May-04 10:34N 53°42' E 005°40'1110.7
2016-May-04 09:32N 53°45' E 005°57'1010.1
2016-May-04 08:32N 53°48' E 006°14'9 9.5
2016-May-04 07:33N 53°50' E 006°29'9 8.8
2016-May-04 06:33N 53°52' E 006°44'8 8.4
2016-May-04 05:33N 53°54' E 006°58'9 8.5
2016-May-04 04:33N 53°57' E 007°12'9 9.1
2016-May-04 03:33N 53°59' E 007°26'10 9.9
2016-May-04 02:34N 54°02' E 007°43'1110.6
2016-May-04 01:33N 54°01' E 008°01'1111.4
2016-May-04 00:33N 53°60' E 008°20'1212.3
2016-May-03 23:33N 53°56' E 008°40'9 9.4
2016-May-03 22:34N 53°51' E 008°53'9 8.5
2016-May-03 21:34N 53°53' E 009°07'2 1.8
2016-May-03 20:34N 53°54' E 009°09'0 0.1
2016-May-03 19:34N 53°54' E 009°09'0 0.0
2016-May-03 18:34N 53°54' E 009°09'7 6.8
2016-May-03 17:34N 53°59' E 009°17'31 7.3
2016-May-03 13:18N 54°21' E 009°55'5 6.8
2016-May-03 12:34N 54°22' E 010°04'3 2.8
2016-May-03 11:34N 54°22' E 010°08'3 2.7
2016-May-03 10:34N 54°24' E 010°12'1010.1
2016-May-03 09:34N 54°31' E 010°23'9 8.6
2016-May-03 08:33N 54°34' E 010°37'1010.3
2016-May-03 07:34N 54°36' E 010°54'1010.1
2016-May-03 06:34N 54°36' E 011°12'1110.5
2016-May-03 05:34N 54°32' E 011°29'1010.2
2016-May-03 04:34N 54°28' E 011°45'10 9.5
2016-May-03 03:34N 54°27' E 012°01'9 8.6
2016-May-03 02:34N 54°32' E 012°12'9 9.2
2016-May-03 01:33N 54°40' E 012°22'10 9.7
2016-May-03 00:34N 54°45' E 012°36'9 9.4
2016-May-02 23:33N 54°49' E 012°50'9 9.4
2016-May-02 22:34N 54°52' E 013°06'10 9.6
2016-May-02 21:34N 54°56' E 013°21'10 9.6
2016-May-02 20:34N 54°59' E 013°37'10 9.9
2016-May-02 19:34N 55°03' E 013°53'10 9.8
2016-May-02 18:34N 55°08' E 014°08'1010.4
2016-May-02 17:34N 55°16' E 014°20'1010.1
2016-May-02 16:33N 55°24' E 014°31'10 9.9
2016-May-02 15:34N 55°29' E 014°45'1010.1
2016-May-02 14:33N 55°34' E 015°01'1110.1
2016-May-02 13:28N 55°39' E 015°18'910.1
2016-May-02 12:34N 55°44' E 015°32'1010.0
2016-May-02 11:34N 55°49' E 015°48'1210.1
2016-May-02 10:23N 55°55' E 016°06'303 9.7
2016-May-01 03:16N 59°24' E 022°55'10 9.6
2016-May-01 02:17N 59°28' E 023°13'7 9.8
2016-May-01 01:33N 59°31' E 023°26'10 9.6
2016-May-01 00:31N 59°34' E 023°44'10 9.6
2016-Apr-30 23:29N 59°37' E 024°03'72 2.2
2016-Apr-29 15:33N 59°43' E 026°24'1212.1
2016-Apr-29 14:33N 59°55' E 026°16'1211.8
2016-Apr-29 13:33N 60°07' E 026°18'1111.4
2016-Apr-29 12:33N 60°16' E 026°30'1212.0
2016-Apr-29 11:33N 60°24' E 026°49'1111.3
2016-Apr-29 10:33N 60°30' E 027°08'2 1.8
2016-Apr-29 09:32N 60°32' E 027°10'0 0.0
2016-Apr-29 08:32N 60°32' E 027°10'0 0.0
2016-Apr-29 07:26N 60°32' E 027°10'0 0.0
2016-Apr-29 06:26N 60°32' E 027°10'0 0.0
2016-Apr-29 05:32N 60°32' E 027°10'0 0.0
2016-Apr-29 04:32N 60°32' E 027°10'0 0.0
2016-Apr-29 03:32N 60°32' E 027°10'0 0.0
2016-Apr-29 02:32N 60°32' E 027°10'0 0.0
2016-Apr-29 01:32N 60°32' E 027°10'0 0.0
2016-Apr-29 00:32N 60°32' E 027°10'0 0.0
2016-Apr-28 23:32N 60°32' E 027°10'0 0.0
2016-Apr-28 22:32N 60°32' E 027°10'0 0.0
2016-Apr-28 21:32N 60°32' E 027°10'0 0.0
2016-Apr-28 20:29N 60°32' E 027°10'0 0.0
2016-Apr-28 19:26N 60°32' E 027°10'0 0.0
2016-Apr-28 18:32N 60°32' E 027°10'0 0.0
2016-Apr-28 17:32N 60°32' E 027°10'0 0.0
2016-Apr-28 16:32N 60°32' E 027°10'0 0.0
2016-Apr-28 07:20N 60°32' E 027°10'0 0.0
2016-Apr-28 05:26N 60°32' E 027°10'0 0.0
2016-Apr-28 03:32N 60°32' E 027°10'0 0.0
2016-Apr-28 02:32N 60°32' E 027°10'0 0.0
2016-Apr-28 01:20N 60°32' E 027°10'0 0.0
2016-Apr-27 22:26N 60°32' E 027°10'0 0.0
2016-Apr-27 21:32N 60°32' E 027°10'0 0.0
2016-Apr-27 20:26N 60°32' E 027°10'0 0.0
2016-Apr-27 19:20N 60°32' E 027°10'0 0.0
2016-Apr-27 18:32N 60°32' E 027°10'0 0.0
2016-Apr-27 17:29N 60°32' E 027°10'0 0.0
2016-Apr-27 01:17N 60°32' E 027°10'0 0.1
2016-Apr-27 00:32N 60°31' E 027°10'9 9.0
2016-Apr-26 23:33N 60°23' E 027°09'8 8.2
2016-Apr-26 22:33N 60°22' E 026°52'9 9.4
2016-Apr-26 21:33N 60°19' E 026°35'10 9.9
2016-Apr-26 20:33N 60°11' E 026°22'7410.4
2016-Apr-26 13:27N 59°41' E 024°08'1010.7
2016-Apr-26 12:33N 59°38' E 023°50'1110.6
2016-Apr-26 11:32N 59°34' E 023°30'  

Dump ship's entire track history